Time;durP1;ratioP1;P1;durP2;ratioP2;P2;SDS_P1;SDS_P2;PMS_P1;PMS_P2;Temp;Humidity;BMP_temperature;BMP_pressure;BME280_temperature;BME280_humidity;BME280_pressure;Samples;Min_cycle;Max_cycle;Signal;HPM_P1;HPM_P2
2023/12/26 00:00:55;;;;;;;6.75;0.73;;;;;;;;;;5012841;28;20467;-85
2023/12/26 00:03:21;;;;;;;10.55;0.95;;;;;;;;;;5026848;28;20017;-86
2023/12/26 00:05:47;;;;;;;10.77;1.13;;;;;;;;;;5033461;28;20028;-86
2023/12/26 00:08:13;;;;;;;8.15;1.50;;;;;;;;;;5032782;28;20018;-86
2023/12/26 00:10:39;;;;;;;15.23;1.08;;;;;;;;;;5020123;28;20033;-85
2023/12/26 00:13:05;;;;;;;12.60;1.10;;;;;;;;;;5018127;28;20014;-85
2023/12/26 00:15:31;;;;;;;9.13;1.10;;;;;;;;;;5027344;28;20037;-86
2023/12/26 00:17:57;;;;;;;14.40;1.30;;;;;;;;;;5013444;28;20425;-85
2023/12/26 00:20:23;;;;;;;9.77;1.33;;;;;;;;;;5024755;28;20075;-86
2023/12/26 00:22:49;;;;;;;10.05;1.20;;;;;;;;;;5030886;28;20014;-85
2023/12/26 00:25:15;;;;;;;10.60;0.95;;;;;;;;;;5023851;28;20018;-86
2023/12/26 00:27:42;;;;;;;14.77;1.42;;;;;;;;;;5011487;28;20014;-85
2023/12/26 00:30:08;;;;;;;23.67;3.05;;;;;;;;;;5024365;28;20036;-85
2023/12/26 00:32:35;;;;;;;9.73;1.08;;;;;;;;;;5031184;28;20018;-85
2023/12/26 00:35:01;;;;;;;10.32;1.10;;;;;;;;;;5030338;28;20397;-84
2023/12/26 00:37:29;;;;;;;13.15;1.48;;;;;;;;;;5030939;28;20010;-85
2023/12/26 00:39:55;;;;;;;14.55;1.55;;;;;;;;;;5028168;28;20025;-85
2023/12/26 00:42:21;;;;;;;11.88;1.45;;;;;;;;;;5030359;28;20041;-86
2023/12/26 00:44:47;;;;;;;13.13;1.55;;;;;;;;;;5032044;28;20041;-85
2023/12/26 00:47:13;;;;;;;15.82;1.52;;;;;;;;;;5031222;28;20018;-85
2023/12/26 00:49:39;;;;;;;14.70;1.35;;;;;;;;;;5030469;28;20022;-86
2023/12/26 00:52:05;;;;;;;16.90;1.60;;;;;;;;;;5030099;28;20381;-85
2023/12/26 00:54:31;;;;;;;11.00;1.48;;;;;;;;;;5030739;28;20466;-85
2023/12/26 00:56:57;;;;;;;12.05;0.80;;;;;;;;;;5030634;28;20013;-85
2023/12/26 00:59:23;;;;;;;13.00;1.80;;;;;;;;;;5028955;28;20113;-85
2023/12/26 01:01:49;;;;;;;14.48;1.63;;;;;;;;;;5010835;28;20516;-85
2023/12/26 01:04:16;;;;;;;13.60;1.50;;;;;;;;;;5012118;28;20487;-85
2023/12/26 01:06:43;;;;;;;15.52;1.67;;;;;;;;;;5030187;28;20017;-86
2023/12/26 01:09:09;;;;;;;15.20;1.58;;;;;;;;;;5018094;28;20026;-85
2023/12/26 01:11:35;;;;;;;15.85;1.50;;;;;;;;;;5030035;28;20108;-85
2023/12/26 01:14:02;;;;;;;11.95;1.90;;;;;;;;;;5030148;28;20433;-85
2023/12/26 01:16:28;;;;;;;16.85;2.00;;;;;;;;;;5011784;28;20014;-85
2023/12/26 01:18:55;;;;;;;14.50;1.25;;;;;;;;;;5010320;28;20046;-85
2023/12/26 01:21:21;;;;;;;11.82;1.40;;;;;;;;;;5026807;28;20021;-85
2023/12/26 01:23:47;;;;;;;11.63;1.10;;;;;;;;;;5030434;28;20029;-85
2023/12/26 01:26:13;;;;;;;22.05;1.80;;;;;;;;;;5015116;28;20025;-85
2023/12/26 01:28:39;;;;;;;10.57;1.33;;;;;;;;;;5010244;28;20009;-82
2023/12/26 01:31:05;;;;;;;13.65;1.75;;;;;;;;;;5022106;28;20393;-81
2023/12/26 01:33:32;;;;;;;19.15;1.55;;;;;;;;;;5021138;28;20042;-81
2023/12/26 01:35:58;;;;;;;13.43;1.40;;;;;;;;;;5020603;28;20018;-81
2023/12/26 01:38:25;;;;;;;20.02;1.88;;;;;;;;;;5028445;28;20021;-82
2023/12/26 01:40:51;;;;;;;16.05;1.50;;;;;;;;;;5017464;28;20018;-82
2023/12/26 01:43:17;;;;;;;12.35;1.48;;;;;;;;;;5008879;28;20021;-81
2023/12/26 01:45:43;;;;;;;16.83;1.63;;;;;;;;;;5017748;28;20032;-81
2023/12/26 01:48:10;;;;;;;11.85;1.55;;;;;;;;;;5028190;28;20055;-81
2023/12/26 01:50:36;;;;;;;13.10;1.35;;;;;;;;;;5019787;28;20040;-82
2023/12/26 01:53:03;;;;;;;15.48;1.90;;;;;;;;;;5009627;28;20021;-81
2023/12/26 01:55:29;;;;;;;8.27;1.58;;;;;;;;;;5016116;28;20489;-82
2023/12/26 01:57:56;;;;;;;13.35;1.55;;;;;;;;;;5028334;28;20020;-81
2023/12/26 02:00:23;;;;;;;10.73;1.15;;;;;;;;;;5022330;28;20025;-81
2023/12/26 02:02:50;;;;;;;14.32;1.50;;;;;;;;;;5008799;28;20014;-81
2023/12/26 02:05:16;;;;;;;18.75;1.85;;;;;;;;;;5012153;28;20025;-81
2023/12/26 02:07:42;;;;;;;8.63;1.50;;;;;;;;;;5028994;28;20537;-81
2023/12/26 02:10:08;;;;;;;12.63;2.35;;;;;;;;;;5025590;28;20040;-81
2023/12/26 02:12:35;;;;;;;13.10;1.58;;;;;;;;;;5009452;28;20010;-81
2023/12/26 02:15:01;;;;;;;16.80;1.85;;;;;;;;;;5008912;28;20044;-80
2023/12/26 02:17:29;;;;;;;9.07;1.30;;;;;;;;;;5016815;28;20545;-81
2023/12/26 02:19:55;;;;;;;12.65;1.80;;;;;;;;;;5007653;28;20025;-81
2023/12/26 02:22:21;;;;;;;11.77;1.83;;;;;;;;;;5014858;28;20445;-81
2023/12/26 02:24:48;;;;;;;7.88;1.67;;;;;;;;;;4996876;28;20489;-81
2023/12/26 02:27:18;;;;;;;17.00;1.70;;;;;;;;;;4997162;28;20517;-81
2023/12/26 02:29:45;;;;;;;11.52;1.40;;;;;;;;;;4999951;28;20061;-81
2023/12/26 02:32:11;;;;;;;15.20;1.63;;;;;;;;;;5004537;28;20018;-81
2023/12/26 02:34:37;;;;;;;12.93;1.67;;;;;;;;;;5005415;28;20017;-81
2023/12/26 02:37:03;;;;;;;12.00;1.55;;;;;;;;;;5012257;28;20045;-81
2023/12/26 02:39:29;;;;;;;14.90;1.65;;;;;;;;;;5022434;28;20014;-81
2023/12/26 02:41:55;;;;;;;8.55;1.60;;;;;;;;;;5020513;28;20021;-81
2023/12/26 02:44:21;;;;;;;17.05;1.98;;;;;;;;;;5012681;28;20022;-81
2023/12/26 02:46:47;;;;;;;13.77;2.30;;;;;;;;;;5016478;28;20022;-81
2023/12/26 02:49:13;;;;;;;15.80;1.90;;;;;;;;;;5011002;28;20049;-81
2023/12/26 02:51:39;;;;;;;17.05;1.90;;;;;;;;;;5006809;28;20049;-81
2023/12/26 02:54:05;;;;;;;12.95;2.42;;;;;;;;;;5015464;28;20041;-81
2023/12/26 02:56:31;;;;;;;13.40;2.13;;;;;;;;;;5006635;28;20474;-81
2023/12/26 02:58:58;;;;;;;14.52;2.28;;;;;;;;;;5013324;28;20373;-81
2023/12/26 03:01:24;;;;;;;19.73;2.20;;;;;;;;;;5010221;28;20029;-81
2023/12/26 03:03:50;;;;;;;18.02;3.10;;;;;;;;;;5001062;28;20113;-80
2023/12/26 03:06:16;;;;;;;16.42;2.28;;;;;;;;;;5009608;28;20014;-81
2023/12/26 03:08:42;;;;;;;8.52;1.38;;;;;;;;;;5008296;28;20021;-81
2023/12/26 03:11:08;;;;;;;19.85;2.13;;;;;;;;;;5011967;28;20022;-81
2023/12/26 03:13:34;;;;;;;11.15;1.55;;;;;;;;;;5009645;28;20480;-81
2023/12/26 03:16:00;;;;;;;19.40;2.17;;;;;;;;;;5009617;28;20006;-81
2023/12/26 03:18:26;;;;;;;17.17;2.25;;;;;;;;;;5017226;28;20041;-81
2023/12/26 03:20:52;;;;;;;20.10;1.88;;;;;;;;;;5021784;28;20044;-81
2023/12/26 03:23:18;;;;;;;20.98;2.55;;;;;;;;;;5022940;28;20018;-81
2023/12/26 03:25:44;;;;;;;21.42;2.35;;;;;;;;;;5012676;28;20014;-81
2023/12/26 03:28:10;;;;;;;17.00;2.38;;;;;;;;;;5018976;28;20021;-81
2023/12/26 03:30:36;;;;;;;21.50;2.55;;;;;;;;;;5012873;28;20062;-81
2023/12/26 03:33:02;;;;;;;15.07;2.17;;;;;;;;;;5008418;28;20053;-81
2023/12/26 03:35:28;;;;;;;18.95;2.35;;;;;;;;;;5007274;28;20016;-81
2023/12/26 03:37:54;;;;;;;10.85;1.55;;;;;;;;;;5025289;28;20223;-81
2023/12/26 03:40:20;;;;;;;23.33;2.20;;;;;;;;;;5015757;28;20010;-81
2023/12/26 03:42:46;;;;;;;15.02;2.10;;;;;;;;;;5020217;28;20021;-81
2023/12/26 03:45:13;;;;;;;21.88;2.17;;;;;;;;;;5019441;28;20016;-80
2023/12/26 03:47:39;;;;;;;13.15;2.00;;;;;;;;;;5013108;28;20168;-81
2023/12/26 03:50:07;;;;;;;14.95;2.13;;;;;;;;;;5005395;28;20053;-81
2023/12/26 03:52:34;;;;;;;13.32;2.28;;;;;;;;;;5019711;28;20017;-80
2023/12/26 03:55:00;;;;;;;11.32;2.15;;;;;;;;;;5013083;28;20033;-81
2023/12/26 03:57:26;;;;;;;20.35;2.53;;;;;;;;;;5011164;28;20312;-81
2023/12/26 03:59:52;;;;;;;12.35;1.75;;;;;;;;;;5019103;28;20014;-80
2023/12/26 04:02:18;;;;;;;20.90;3.10;;;;;;;;;;5019658;28;20025;-81
2023/12/26 04:04:44;;;;;;;12.98;1.85;;;;;;;;;;5022651;28;20025;-80
2023/12/26 04:07:11;;;;;;;13.68;1.90;;;;;;;;;;5023622;28;20024;-80
2023/12/26 04:09:37;;;;;;;9.63;1.45;;;;;;;;;;5012614;28;20026;-81
2023/12/26 04:12:03;;;;;;;13.93;2.13;;;;;;;;;;5018757;28;20010;-81
2023/12/26 04:14:29;;;;;;;17.45;2.28;;;;;;;;;;5013592;28;20016;-83
2023/12/26 04:16:55;;;;;;;14.95;2.40;;;;;;;;;;5014766;28;20249;-81
2023/12/26 04:19:21;;;;;;;18.08;2.25;;;;;;;;;;5018286;28;20046;-82
2023/12/26 04:21:47;;;;;;;17.33;2.50;;;;;;;;;;5003088;28;20025;-81
2023/12/26 04:24:13;;;;;;;16.63;2.17;;;;;;;;;;5021696;28;20032;-81
2023/12/26 04:26:39;;;;;;;13.40;1.52;;;;;;;;;;5020470;28;20053;-81
2023/12/26 04:29:06;;;;;;;13.48;1.73;;;;;;;;;;5022313;28;20454;-80
2023/12/26 04:31:32;;;;;;;14.05;2.05;;;;;;;;;;5015378;28;20010;-81
2023/12/26 04:33:58;;;;;;;13.07;2.30;;;;;;;;;;5017398;28;20247;-80
2023/12/26 04:36:24;;;;;;;15.25;2.67;;;;;;;;;;5025077;28;20531;-81
2023/12/26 04:38:50;;;;;;;21.85;1.95;;;;;;;;;;5028894;28;20021;-81
2023/12/26 04:41:16;;;;;;;14.88;1.50;;;;;;;;;;5026024;28;20026;-81
2023/12/26 04:43:42;;;;;;;10.95;1.90;;;;;;;;;;5020836;28;20080;-81
2023/12/26 04:46:09;;;;;;;12.23;2.53;;;;;;;;;;5008800;28;20022;-81
2023/12/26 04:48:35;;;;;;;15.05;2.60;;;;;;;;;;5020966;28;20025;-80
2023/12/26 04:51:01;;;;;;;14.73;2.42;;;;;;;;;;5027038;28;20029;-81
2023/12/26 04:53:27;;;;;;;11.90;1.90;;;;;;;;;;5013713;28;20076;-81
2023/12/26 04:55:53;;;;;;;11.93;1.70;;;;;;;;;;5011288;28;20048;-81
2023/12/26 04:58:19;;;;;;;16.90;2.33;;;;;;;;;;5016065;28;20104;-81
2023/12/26 05:00:45;;;;;;;10.20;1.85;;;;;;;;;;5029616;28;20045;-80
2023/12/26 05:03:11;;;;;;;9.15;1.90;;;;;;;;;;5029953;28;20025;-81
2023/12/26 05:05:37;;;;;;;10.15;2.15;;;;;;;;;;5016455;28;20018;-83
2023/12/26 05:08:03;;;;;;;10.27;1.50;;;;;;;;;;5012494;28;20570;-80
2023/12/26 05:10:32;;;;;;;10.23;1.55;;;;;;;;;;5011913;28;20053;-80
2023/12/26 05:12:58;;;;;;;19.50;3.05;;;;;;;;;;5009684;28;20038;-84
2023/12/26 05:15:24;;;;;;;10.85;1.65;;;;;;;;;;5030197;28;20025;-84
2023/12/26 05:17:50;;;;;;;17.88;2.10;;;;;;;;;;5010635;28;20037;-84
2023/12/26 05:20:16;;;;;;;10.40;2.90;;;;;;;;;;5027841;28;20159;-86
2023/12/26 05:22:42;;;;;;;12.52;1.90;;;;;;;;;;5013840;28;20026;-85
2023/12/26 05:25:10;;;;;;;11.48;1.73;;;;;;;;;;5026083;28;20022;-86
2023/12/26 05:27:37;;;;;;;12.90;1.83;;;;;;;;;;5023447;28;20509;-83
2023/12/26 05:30:03;;;;;;;15.27;2.70;;;;;;;;;;5001000;28;20030;-84
2023/12/26 05:32:29;;;;;;;14.75;2.08;;;;;;;;;;5010862;28;20014;-85
2023/12/26 05:34:55;;;;;;;14.82;1.95;;;;;;;;;;5030081;28;20017;-85
2023/12/26 05:37:22;;;;;;;13.38;2.40;;;;;;;;;;4999050;28;20109;-85
2023/12/26 05:39:50;;;;;;;12.63;2.03;;;;;;;;;;5019961;28;20022;-85
2023/12/26 05:42:17;;;;;;;16.17;1.95;;;;;;;;;;5022223;28;20024;-85
2023/12/26 05:44:43;;;;;;;14.30;2.38;;;;;;;;;;5011055;28;20026;-85
2023/12/26 05:47:09;;;;;;;11.88;2.13;;;;;;;;;;5006556;28;20018;-86
2023/12/26 05:49:35;;;;;;;17.98;1.88;;;;;;;;;;5020876;28;20091;-87
2023/12/26 05:52:01;;;;;;;14.88;1.70;;;;;;;;;;5029849;28;20029;-86
2023/12/26 05:54:27;;;;;;;18.30;2.40;;;;;;;;;;5030446;28;20048;-86
2023/12/26 05:56:53;;;;;;;14.98;2.10;;;;;;;;;;5016463;28;20018;-87
2023/12/26 05:59:19;;;;;;;15.02;1.80;;;;;;;;;;5005429;28;20029;-87
2023/12/26 06:01:47;;;;;;;17.08;2.10;;;;;;;;;;5005590;28;20044;-88
2023/12/26 06:04:13;;;;;;;18.55;2.50;;;;;;;;;;5015309;28;20013;-89
2023/12/26 06:06:39;;;;;;;19.17;2.45;;;;;;;;;;5030738;28;20021;-85
2023/12/26 06:09:05;;;;;;;13.73;2.25;;;;;;;;;;5027155;28;20010;-78
2023/12/26 06:11:31;;;;;;;20.17;2.03;;;;;;;;;;5027302;28;20041;-77
2023/12/26 06:13:57;;;;;;;13.02;2.42;;;;;;;;;;5019294;28;20020;-78
2023/12/26 06:16:23;;;;;;;17.15;2.55;;;;;;;;;;5027794;28;20021;-78
2023/12/26 06:18:50;;;;;;;20.75;3.47;;;;;;;;;;5028721;28;20033;-78
2023/12/26 06:21:16;;;;;;;18.23;2.33;;;;;;;;;;5024324;28;20505;-76
2023/12/26 06:23:42;;;;;;;14.82;2.30;;;;;;;;;;5019599;28;20022;-77
2023/12/26 06:26:08;;;;;;;15.82;2.95;;;;;;;;;;5021575;28;20177;-76
2023/12/26 06:28:34;;;;;;;20.42;2.55;;;;;;;;;;5018122;28;20359;-76
2023/12/26 06:31:01;;;;;;;17.90;2.60;;;;;;;;;;5024432;28;20120;-76
2023/12/26 06:33:27;;;;;;;15.98;1.92;;;;;;;;;;5026010;28;20021;-76
2023/12/26 06:35:53;;;;;;;13.88;2.30;;;;;;;;;;5038745;28;20075;-77
2023/12/26 06:38:19;;;;;;;14.80;2.00;;;;;;;;;;5019408;28;20014;-78
2023/12/26 06:40:45;;;;;;;16.27;2.33;;;;;;;;;;5020243;28;20363;-79
2023/12/26 06:43:11;;;;;;;15.15;2.10;;;;;;;;;;5025353;28;20028;-78
2023/12/26 06:45:37;;;;;;;15.00;1.83;;;;;;;;;;5013507;28;20022;-78
2023/12/26 06:48:03;;;;;;;13.85;2.40;;;;;;;;;;5006126;28;20457;-78
2023/12/26 06:50:29;;;;;;;9.68;2.13;;;;;;;;;;5018285;28;20032;-76
2023/12/26 06:52:56;;;;;;;15.57;2.25;;;;;;;;;;5025784;28;20014;-76
2023/12/26 06:55:22;;;;;;;16.58;1.73;;;;;;;;;;5018077;28;20014;-76
2023/12/26 06:57:48;;;;;;;14.38;2.10;;;;;;;;;;5006179;28;20474;-76
2023/12/26 07:00:17;;;;;;;12.68;2.00;;;;;;;;;;5013489;28;20060;-76
2023/12/26 07:02:43;;;;;;;12.00;2.47;;;;;;;;;;5025944;28;20014;-76
2023/12/26 07:05:09;;;;;;;18.38;2.20;;;;;;;;;;5020582;28;20085;-76
2023/12/26 07:07:35;;;;;;;11.15;2.20;;;;;;;;;;5006016;28;20018;-76
2023/12/26 07:10:01;;;;;;;16.92;2.63;;;;;;;;;;5011377;28;20041;-76
2023/12/26 07:12:27;;;;;;;10.13;2.15;;;;;;;;;;5026051;28;20358;-76
2023/12/26 07:14:54;;;;;;;18.80;2.60;;;;;;;;;;5022253;28;20021;-76
2023/12/26 07:17:20;;;;;;;14.40;2.15;;;;;;;;;;5007197;28;20024;-76
2023/12/26 07:19:46;;;;;;;18.90;2.22;;;;;;;;;;5007692;28;20018;-76
2023/12/26 07:22:12;;;;;;;19.92;2.83;;;;;;;;;;5025656;28;20017;-76
2023/12/26 07:24:38;;;;;;;13.00;1.83;;;;;;;;;;5026785;28;20022;-76
2023/12/26 07:27:04;;;;;;;17.00;2.25;;;;;;;;;;5007356;28;20363;-76
2023/12/26 07:29:30;;;;;;;19.38;2.25;;;;;;;;;;5007139;28;20113;-76
2023/12/26 07:31:56;;;;;;;19.73;2.38;;;;;;;;;;5022190;28;20148;-76
2023/12/26 07:34:22;;;;;;;16.70;2.75;;;;;;;;;;5024995;28;20041;-76
2023/12/26 07:36:48;;;;;;;14.02;3.05;;;;;;;;;;5009608;28;20385;-76
2023/12/26 07:39:14;;;;;;;16.98;2.42;;;;;;;;;;5006718;28;20123;-76
2023/12/26 07:41:40;;;;;;;13.13;1.92;;;;;;;;;;5020181;28;20033;-76
2023/12/26 07:44:07;;;;;;;16.48;2.10;;;;;;;;;;5026522;28;20016;-76
2023/12/26 07:46:33;;;;;;;11.10;2.53;;;;;;;;;;5014578;28;20022;-76
2023/12/26 07:48:59;;;;;;;15.40;2.40;;;;;;;;;;5005521;28;20021;-76
2023/12/26 07:51:25;;;;;;;16.13;2.70;;;;;;;;;;5016817;28;20025;-76
2023/12/26 07:53:52;;;;;;;14.30;2.00;;;;;;;;;;5025559;28;20014;-76
2023/12/26 07:56:19;;;;;;;19.55;2.40;;;;;;;;;;5017976;28;20498;-76
2023/12/26 07:58:45;;;;;;;13.30;1.95;;;;;;;;;;5006884;28;20013;-76
2023/12/26 08:01:13;;;;;;;15.00;2.28;;;;;;;;;;5014579;28;20047;-76
2023/12/26 08:03:39;;;;;;;17.23;2.25;;;;;;;;;;5028694;28;20021;-76
2023/12/26 08:06:05;;;;;;;15.05;2.10;;;;;;;;;;5022268;28;20113;-76
2023/12/26 08:08:31;;;;;;;18.50;2.60;;;;;;;;;;5009033;28;20056;-76
2023/12/26 08:10:57;;;;;;;14.45;1.77;;;;;;;;;;5013328;28;20029;-76
2023/12/26 08:13:24;;;;;;;20.83;3.88;;;;;;;;;;5028622;28;20013;-76
2023/12/26 08:15:50;;;;;;;16.00;2.35;;;;;;;;;;5025373;28;20016;-76
2023/12/26 08:18:16;;;;;;;17.08;2.65;;;;;;;;;;5008684;28;20120;-76
2023/12/26 08:20:42;;;;;;;14.35;2.45;;;;;;;;;;5010415;28;20028;-76
2023/12/26 08:23:08;;;;;;;19.40;2.40;;;;;;;;;;5030139;28;20072;-76
2023/12/26 08:25:35;;;;;;;11.93;2.00;;;;;;;;;;5028732;28;20324;-76
2023/12/26 08:28:01;;;;;;;16.90;2.17;;;;;;;;;;5008932;28;20014;-75
2023/12/26 08:30:27;;;;;;;14.52;2.45;;;;;;;;;;5009094;28;20112;-76
2023/12/26 08:32:53;;;;;;;11.70;1.90;;;;;;;;;;5028764;28;20021;-76
2023/12/26 08:35:19;;;;;;;14.02;2.30;;;;;;;;;;5028387;28;20017;-76
2023/12/26 08:37:45;;;;;;;16.20;2.50;;;;;;;;;;5011400;28;20065;-76
2023/12/26 08:40:11;;;;;;;23.67;3.22;;;;;;;;;;5010443;28;20014;-76
2023/12/26 08:42:37;;;;;;;18.45;2.22;;;;;;;;;;5025926;28;20023;-76
2023/12/26 08:45:03;;;;;;;16.35;2.50;;;;;;;;;;5028990;28;20013;-76
2023/12/26 08:47:29;;;;;;;12.13;1.85;;;;;;;;;;5016005;28;20071;-76
2023/12/26 08:49:56;;;;;;;13.90;1.85;;;;;;;;;;5008048;28;20033;-76
2023/12/26 08:52:23;;;;;;;16.23;2.38;;;;;;;;;;5021155;28;20017;-76
2023/12/26 08:54:49;;;;;;;12.15;2.42;;;;;;;;;;5028248;28;20010;-76
2023/12/26 08:57:15;;;;;;;16.08;2.45;;;;;;;;;;5017685;28;20021;-76
2023/12/26 08:59:41;;;;;;;12.85;2.03;;;;;;;;;;5008764;28;20025;-76
2023/12/26 09:02:07;;;;;;;10.02;1.83;;;;;;;;;;5017868;28;20462;-76
2023/12/26 09:04:33;;;;;;;13.68;2.17;;;;;;;;;;5029758;28;20057;-76
2023/12/26 09:06:59;;;;;;;17.58;2.08;;;;;;;;;;5020447;28;20021;-76
2023/12/26 09:09:26;;;;;;;16.75;2.97;;;;;;;;;;5008202;28;20026;-76
2023/12/26 09:11:56;;;;;;;15.27;2.50;;;;;;;;;;5016155;28;20315;-76
2023/12/26 09:14:22;;;;;;;20.05;2.42;;;;;;;;;;5029374;28;20014;-76
2023/12/26 09:16:48;;;;;;;13.98;3.33;;;;;;;;;;5021966;28;20018;-76
2023/12/26 09:19:14;;;;;;;17.85;2.40;;;;;;;;;;5009163;28;20057;-76
2023/12/26 09:21:40;;;;;;;13.35;2.25;;;;;;;;;;5012461;28;20067;-76
2023/12/26 09:24:06;;;;;;;18.20;3.53;;;;;;;;;;5029142;28;20519;-76
2023/12/26 09:26:32;;;;;;;15.68;2.65;;;;;;;;;;5026320;28;20044;-76
2023/12/26 09:28:59;;;;;;;17.70;2.40;;;;;;;;;;5007980;28;20037;-76
2023/12/26 09:31:25;;;;;;;12.60;2.78;;;;;;;;;;5009136;28;20026;-76
2023/12/26 09:33:51;;;;;;;18.33;2.60;;;;;;;;;;5029387;28;20478;-76
2023/12/26 09:36:17;;;;;;;16.80;2.60;;;;;;;;;;5027486;28;20061;-76
2023/12/26 09:38:43;;;;;;;24.63;3.25;;;;;;;;;;5007963;28;20014;-76
2023/12/26 09:41:11;;;;;;;14.63;2.38;;;;;;;;;;5007840;28;20021;-76
2023/12/26 09:43:38;;;;;;;14.95;2.25;;;;;;;;;;5027380;28;20028;-76
2023/12/26 09:46:04;;;;;;;18.17;3.03;;;;;;;;;;5028538;28;20009;-76
2023/12/26 09:48:33;;;;;;;14.88;3.17;;;;;;;;;;5011406;28;20037;-76
2023/12/26 09:51:01;;;;;;;13.63;2.30;;;;;;;;;;5007346;28;20022;-76
2023/12/26 09:53:29;;;;;;;17.33;2.72;;;;;;;;;;5023656;28;20255;-76
2023/12/26 09:55:55;;;;;;;17.05;2.92;;;;;;;;;;5028256;28;20021;-76
2023/12/26 09:58:21;;;;;;;14.23;2.15;;;;;;;;;;5012835;28;20014;-76
2023/12/26 10:00:49;;;;;;;17.48;2.75;;;;;;;;;;5007224;28;20105;-76
2023/12/26 10:03:15;;;;;;;16.98;2.42;;;;;;;;;;5020133;28;20018;-76
2023/12/26 10:05:41;;;;;;;10.57;2.05;;;;;;;;;;5026518;28;20013;-76
2023/12/26 10:08:07;;;;;;;16.40;2.78;;;;;;;;;;5016951;28;20095;-76
2023/12/26 10:10:33;;;;;;;18.67;2.33;;;;;;;;;;5008332;28;20462;-76
2023/12/26 10:13:00;;;;;;;19.08;2.60;;;;;;;;;;5017883;28;20474;-76
2023/12/26 10:15:27;;;;;;;15.88;2.10;;;;;;;;;;5014177;28;20068;-76
2023/12/26 10:17:54;;;;;;;12.13;2.15;;;;;;;;;;5014941;28;20076;-76
2023/12/26 10:20:20;;;;;;;14.40;2.08;;;;;;;;;;5026741;28;20017;-76
2023/12/26 10:22:46;;;;;;;13.48;2.38;;;;;;;;;;5020948;28;20022;-76
2023/12/26 10:25:13;;;;;;;14.70;2.40;;;;;;;;;;5007313;28;20014;-76
2023/12/26 10:27:39;;;;;;;14.05;2.85;;;;;;;;;;5014238;28;20098;-76
2023/12/26 10:30:06;;;;;;;15.40;2.30;;;;;;;;;;5026857;28;20108;-76
2023/12/26 10:32:32;;;;;;;15.18;2.42;;;;;;;;;;5022953;28;20014;-76
2023/12/26 10:35:13;;;;;;;13.85;2.83;;;;;;;;;;5007014;28;20466;-76
2023/12/26 10:37:39;;;;;;;18.85;2.63;;;;;;;;;;5011691;28;20021;-76
2023/12/26 10:40:06;;;;;;;12.95;1.90;;;;;;;;;;5028302;28;20101;-76
2023/12/26 10:42:32;;;;;;;10.95;2.45;;;;;;;;;;5023466;28;20022;-76
2023/12/26 10:45:04;;;;;;;13.13;2.35;;;;;;;;;;5008269;28;20022;-76
2023/12/26 10:47:31;;;;;;;12.10;2.08;;;;;;;;;;5010753;28;20024;-76
2023/12/26 10:50:01;;;;;;;14.52;2.63;;;;;;;;;;5026205;28;20029;-76
2023/12/26 10:52:28;;;;;;;13.88;2.30;;;;;;;;;;5024492;28;20020;-76
2023/12/26 10:54:59;;;;;;;15.63;2.20;;;;;;;;;;5006775;28;20272;-76
2023/12/26 10:57:25;;;;;;;13.45;2.47;;;;;;;;;;5008675;28;20276;-76
2023/12/26 13:51:33;;;;;;;5.68;1.48;;;;;;;;;;5018994;28;20036;-76
2023/12/26 13:54:21;;;;;;;4.25;0.95;;;;;;;;;;5028153;28;20020;-77
2023/12/26 13:57:06;;;;;;;6.10;0.88;;;;;;;;;;5014275;28;20021;-76
2023/12/26 13:59:51;;;;;;;4.45;0.60;;;;;;;;;;5008502;28;20050;-76
2023/12/26 14:02:36;;;;;;;5.70;0.93;;;;;;;;;;5025231;28;20101;-76
2023/12/26 14:05:20;;;;;;;5.45;0.70;;;;;;;;;;5028978;28;20017;-77
2023/12/26 14:08:05;;;;;;;4.63;1.42;;;;;;;;;;4988450;28;20497;-76
2023/12/26 14:10:50;;;;;;;8.55;1.58;;;;;;;;;;5009117;28;20358;-77
2023/12/26 14:13:35;;;;;;;5.88;1.38;;;;;;;;;;5027470;28;20386;-77
2023/12/26 14:16:21;;;;;;;6.97;1.38;;;;;;;;;;5022334;28;20018;-77
2023/12/26 14:19:06;;;;;;;8.30;1.40;;;;;;;;;;5007655;28;20038;-77
2023/12/26 14:21:50;;;;;;;6.00;1.45;;;;;;;;;;5018371;28;20026;-76
2023/12/26 14:24:35;;;;;;;8.90;1.92;;;;;;;;;;5027485;28;20488;-76
2023/12/26 14:27:20;;;;;;;9.85;2.28;;;;;;;;;;5015930;28;20458;-76
2023/12/26 14:30:04;;;;;;;13.57;3.55;;;;;;;;;;5007583;28;20029;-76
2023/12/26 14:32:49;;;;;;;12.45;1.63;;;;;;;;;;5023903;28;20067;-76
2023/12/26 14:35:34;;;;;;;8.32;2.53;;;;;;;;;;5027261;28;20014;-77
2023/12/26 14:38:19;;;;;;;13.13;2.65;;;;;;;;;;4987772;28;20505;-76
2023/12/26 14:41:04;;;;;;;8.32;2.00;;;;;;;;;;4991512;28;20165;-76
2023/12/26 14:43:53;;;;;;;9.45;1.67;;;;;;;;;;5026780;28;20021;-76
2023/12/26 14:46:38;;;;;;;14.98;4.72;;;;;;;;;;5021882;28;20081;-76
2023/12/26 14:49:22;;;;;;;14.75;5.63;;;;;;;;;;5008466;28;20018;-76
2023/12/26 14:52:08;;;;;;;11.82;4.13;;;;;;;;;;5015428;28;20040;-76
2023/12/26 14:54:53;;;;;;;5.30;2.38;;;;;;;;;;5027002;28;20477;-76
2023/12/26 14:57:37;;;;;;;10.30;2.95;;;;;;;;;;5014761;28;20025;-76
2023/12/26 15:00:22;;;;;;;14.90;3.85;;;;;;;;;;5007300;28;20010;-76
2023/12/26 15:02:48;;;;;;;10.23;3.53;;;;;;;;;;5021020;28;20027;-76
2023/12/26 15:05:15;;;;;;;16.17;5.88;;;;;;;;;;5026628;28;20253;-75
2023/12/26 15:07:41;;;;;;;10.25;3.10;;;;;;;;;;5014195;28;20013;-75
2023/12/26 15:10:07;;;;;;;9.05;2.20;;;;;;;;;;5007070;28;20029;-76
2023/12/26 15:12:33;;;;;;;11.55;3.22;;;;;;;;;;5018752;28;20029;-75
2023/12/26 15:14:59;;;;;;;7.65;2.40;;;;;;;;;;5028315;28;20022;-76
2023/12/26 15:17:25;;;;;;;7.30;1.80;;;;;;;;;;5019724;28;20068;-75
2023/12/26 15:19:51;;;;;;;10.32;1.40;;;;;;;;;;5006746;28;20478;-76
2023/12/26 15:22:18;;;;;;;7.25;1.40;;;;;;;;;;5011949;28;20017;-76
2023/12/26 15:24:44;;;;;;;7.32;1.15;;;;;;;;;;5026261;28;20720;-76
2023/12/26 15:27:10;;;;;;;6.55;1.20;;;;;;;;;;5022464;28;20535;-76
2023/12/26 15:29:36;;;;;;;9.23;1.45;;;;;;;;;;5006813;28;20026;-76
2023/12/26 15:32:03;;;;;;;8.63;1.58;;;;;;;;;;5010691;28;20026;-75
2023/12/26 15:34:29;;;;;;;9.65;1.20;;;;;;;;;;5026558;28;20474;-76
2023/12/26 15:36:55;;;;;;;5.75;1.10;;;;;;;;;;5024899;28;20552;-76
2023/12/26 15:39:21;;;;;;;11.70;1.58;;;;;;;;;;5008076;28;20085;-75
2023/12/26 15:41:47;;;;;;;11.85;1.90;;;;;;;;;;5007914;28;20105;-75
2023/12/26 15:44:14;;;;;;;11.05;1.20;;;;;;;;;;5021560;28;20006;-75
2023/12/26 15:46:40;;;;;;;12.50;1.70;;;;;;;;;;5007895;28;20025;-75
2023/12/26 15:49:06;;;;;;;10.27;1.42;;;;;;;;;;5005957;28;20440;-76
2023/12/26 15:51:32;;;;;;;12.95;1.80;;;;;;;;;;5002821;28;20026;-76
2023/12/26 15:53:58;;;;;;;14.00;1.88;;;;;;;;;;5019390;28;20032;-76
2023/12/26 15:56:27;;;;;;;15.50;3.20;;;;;;;;;;5009597;28;20052;-76
2023/12/26 15:58:53;;;;;;;35.00;9.75;;;;;;;;;;5025968;28;20097;-76
2023/12/26 16:01:22;;;;;;;33.78;8.65;;;;;;;;;;5017287;28;20033;-76
2023/12/26 16:03:53;;;;;;;37.53;11.35;;;;;;;;;;5012296;28;20065;-75
2023/12/26 16:06:27;;;;;;;24.75;8.00;;;;;;;;;;5022380;28;20508;-75
2023/12/26 16:08:55;;;;;;;14.45;4.57;;;;;;;;;;5020045;28;20018;-81
2023/12/26 16:11:21;;;;;;;10.77;3.47;;;;;;;;;;5007716;28;20057;-83
2023/12/26 16:13:47;;;;;;;12.65;3.10;;;;;;;;;;5020106;28;20025;-80
2023/12/26 16:16:13;;;;;;;10.32;4.50;;;;;;;;;;5022842;28;20026;-80
2023/12/26 16:18:40;;;;;;;14.48;2.92;;;;;;;;;;5023138;28;20026;-80
2023/12/26 16:21:07;;;;;;;8.45;2.08;;;;;;;;;;5023916;28;20042;-81
2023/12/26 16:23:33;;;;;;;12.32;1.80;;;;;;;;;;5012307;28;20389;-80
2023/12/26 16:25:59;;;;;;;9.85;2.03;;;;;;;;;;5007832;28;20020;-80
2023/12/26 16:28:26;;;;;;;9.25;1.65;;;;;;;;;;5026238;28;20053;-80
2023/12/26 16:30:53;;;;;;;8.32;1.52;;;;;;;;;;5023404;28;20417;-81
2023/12/26 16:33:19;;;;;;;12.43;1.85;;;;;;;;;;5022512;28;20030;-81
2023/12/26 16:35:45;;;;;;;9.27;1.73;;;;;;;;;;5019336;28;20026;-80
2023/12/26 16:38:11;;;;;;;11.65;1.38;;;;;;;;;;5002247;28;20018;-80
2023/12/26 16:40:37;;;;;;;6.05;1.40;;;;;;;;;;5000858;28;20101;-80
2023/12/26 16:43:03;;;;;;;11.10;1.73;;;;;;;;;;5024538;28;20080;-80
2023/12/26 16:45:29;;;;;;;9.25;1.42;;;;;;;;;;5016090;28;20064;-83
2023/12/26 16:47:56;;;;;;;9.75;1.85;;;;;;;;;;5022934;28;20047;-83
2023/12/26 16:50:22;;;;;;;14.35;1.50;;;;;;;;;;5013299;28;20017;-83
2023/12/26 16:52:48;;;;;;;15.32;1.80;;;;;;;;;;5011831;28;20033;-83
2023/12/26 16:55:14;;;;;;;13.13;1.52;;;;;;;;;;5005404;28;20072;-83
2023/12/26 16:57:40;;;;;;;6.03;1.08;;;;;;;;;;5000360;28;20470;-83
2023/12/26 17:00:06;;;;;;;12.23;1.17;;;;;;;;;;5002990;28;20064;-81
2023/12/26 17:02:32;;;;;;;11.25;1.65;;;;;;;;;;4996879;28;20386;-81
2023/12/26 17:04:58;;;;;;;9.75;0.90;;;;;;;;;;5013091;28;20014;-81
2023/12/26 17:07:25;;;;;;;12.15;1.27;;;;;;;;;;5008585;28;20079;-81
2023/12/26 17:09:51;;;;;;;16.13;2.15;;;;;;;;;;5026258;28;20025;-81
2023/12/26 17:12:19;;;;;;;13.18;1.52;;;;;;;;;;5029764;28;20071;-81
2023/12/26 17:14:45;;;;;;;9.48;1.38;;;;;;;;;;5009225;28;20041;-81
2023/12/26 17:17:11;;;;;;;9.60;1.45;;;;;;;;;;5025201;28;20504;-81
2023/12/26 17:19:40;;;;;;;9.77;1.52;;;;;;;;;;5014654;28;20233;-81
2023/12/26 17:22:10;;;;;;;8.20;1.17;;;;;;;;;;5020890;28;20381;-81
2023/12/26 17:24:36;;;;;;;9.52;1.50;;;;;;;;;;5008307;28;20101;-82